Time;durP1;ratioP1;P1;durP2;ratioP2;P2;SDS_P1;SDS_P2;PMS_P1;PMS_P2;Temp;Humidity;BMP_temperature;BMP_pressure;BME280_temperature;BME280_humidity;BME280_pressure;Samples;Min_cycle;Max_cycle;Signal;HPM_P1;HPM_P2
2022/08/03 00:00:43;;;;;;;;;;;21.00;99.90;;;;;;5076677;28;20056;-81
2022/08/03 00:03:08;;;;;;;5.63;2.60;;;21.00;99.90;;;;;;5077133;28;20272;-82
2022/08/03 00:05:35;;;;;;;5.83;2.90;;;20.90;99.90;;;;;;5077124;28;20072;-82
2022/08/03 00:08:00;;;;;;;;;;;20.80;99.90;;;;;;5076477;28;20110;-81
2022/08/03 00:10:26;;;;;;;7.05;2.80;;;20.80;99.90;;;;;;5077002;28;20352;-82
2022/08/03 00:12:52;;;;;;;6.03;2.80;;;20.90;99.90;;;;;;5076808;28;20149;-82
2022/08/03 00:15:19;;;;;;;7.07;2.78;;;20.80;99.90;;;;;;5076905;28;20044;-80
2022/08/03 00:17:44;;;;;;;5.22;2.67;;;20.70;99.90;;;;;;5076882;28;20041;-80
2022/08/03 00:20:10;;;;;;;6.90;2.80;;;20.80;99.90;;;;;;5075623;28;20055;-81
2022/08/03 00:22:36;;;;;;;5.85;2.55;;;20.70;99.90;;;;;;5075765;28;20040;-81
2022/08/03 00:25:02;;;;;;;6.40;2.57;;;20.70;99.90;;;;;;5075873;28;20052;-80
2022/08/03 00:27:28;;;;;;;4.15;2.42;;;20.60;99.90;;;;;;5076788;28;20047;-81
2022/08/03 00:29:53;;;;;;;5.77;2.73;;;20.70;99.90;;;;;;5076612;28;20048;-81
2022/08/03 00:32:19;;;;;;;7.17;3.00;;;20.60;99.90;;;;;;5059021;28;20048;-81
2022/08/03 00:34:44;;;;;;;5.47;2.83;;;20.60;99.90;;;;;;5058648;28;20055;-81
2022/08/03 00:37:10;;;;;;;6.60;2.77;;;20.50;99.90;;;;;;5076549;28;20064;-82
2022/08/03 00:39:36;;;;;;;6.20;2.70;;;20.50;99.90;;;;;;5076500;28;20087;-80
2022/08/03 00:42:04;;;;;;;6.30;2.90;;;20.50;99.90;;;;;;5076335;28;20384;-81
2022/08/03 00:44:30;;;;;;;7.07;2.85;;;20.40;99.90;;;;;;5076343;28;20203;-81
2022/08/03 00:46:55;;;;;;;7.20;3.23;;;20.40;99.90;;;;;;5076156;28;20123;-80
2022/08/03 00:49:22;;;;;;;6.90;2.90;;;20.40;99.90;;;;;;5075053;28;20505;-80
2022/08/03 00:51:47;;;;;;;7.38;3.22;;;20.60;99.90;;;;;;5058769;28;20056;-81
2022/08/03 00:54:14;;;;;;;5.17;2.87;;;20.30;99.90;;;;;;5074662;28;20473;-79
2022/08/03 00:56:41;;;;;;;5.70;3.17;;;20.30;99.90;;;;;;5075139;28;20044;-80
2022/08/03 00:59:08;;;;;;;7.00;3.50;;;20.20;99.90;;;;;;5076089;28;20045;-82
2022/08/03 01:01:34;;;;;;;6.20;3.40;;;20.20;99.90;;;;;;5076074;28;20059;-81
2022/08/03 01:04:00;;;;;;;5.63;3.53;;;20.10;99.90;;;;;;5057719;28;20040;-80
2022/08/03 01:06:36;;;;;;;8.77;3.77;;;20.20;99.90;;;;;;5076144;28;20051;-81
2022/08/03 01:09:17;;;;;;;6.35;3.65;;;20.00;99.90;;;;;;5075701;28;20545;-81
2022/08/03 01:11:46;;;;;;;8.20;4.00;;;20.00;99.90;;;;;;5075887;28;20060;-80
2022/08/03 01:14:24;;;;;;;6.22;3.45;;;20.00;99.90;;;;;;5075696;28;20040;-82
2022/08/03 01:16:55;;;;;;;5.03;3.60;;;19.90;99.90;;;;;;5075802;28;20057;-82
2022/08/03 01:19:43;;;;;;;6.15;3.38;;;19.90;99.90;;;;;;5075792;28;20045;-82
2022/08/03 01:22:12;;;;;;;;;;;19.90;99.90;;;;;;5075767;28;20127;-80
2022/08/03 01:25:22;;;;;;;6.22;4.00;;;19.80;99.90;;;;;;5074786;28;19966;-81
2022/08/03 01:28:20;;;;;;;8.05;3.85;;;19.80;99.90;;;;;;5052382;28;20052;-81
2022/08/03 01:30:47;;;;;;;6.63;3.72;;;19.80;99.90;;;;;;5071563;28;20056;-81
2022/08/03 01:33:18;;;;;;;8.73;3.95;;;19.80;99.90;;;;;;5075374;28;20507;-81
2022/08/03 01:35:53;;;;;;;6.90;3.50;;;19.70;99.90;;;;;;5074721;28;20106;-81
2022/08/03 01:38:25;;;;;;;7.68;3.63;;;19.80;99.90;;;;;;5075337;28;20063;-81
2022/08/03 01:40:55;;;;;;;9.25;3.55;;;19.70;99.90;;;;;;5057653;28;20052;-81
2022/08/03 01:43:27;;;;;;;8.13;3.72;;;19.70;99.90;;;;;;5074444;28;20439;-82
2022/08/03 01:45:54;;;;;;;5.63;3.42;;;19.70;99.90;;;;;;5074157;28;20283;-80
2022/08/03 01:48:20;;;;;;;8.18;4.10;;;19.70;99.90;;;;;;5075283;28;20063;-81
2022/08/03 01:50:47;;;;;;;6.45;3.63;;;19.70;99.90;;;;;;5074121;28;20040;-80
2022/08/03 01:53:15;;;;;;;6.32;3.60;;;19.60;99.90;;;;;;5074959;28;20492;-82
2022/08/03 01:55:43;;;;;;;7.28;4.03;;;19.60;99.90;;;;;;5075402;28;20048;-82
2022/08/03 01:58:11;;;;;;;7.28;3.97;;;19.60;99.90;;;;;;5075237;28;20040;-83
2022/08/03 02:00:38;;;;;;;6.75;3.30;;;19.60;99.90;;;;;;5057316;28;20040;-81
2022/08/03 02:03:08;;;;;;;6.50;3.70;;;19.60;99.90;;;;;;5074781;28;20037;-81
2022/08/03 02:05:36;;;;;;;8.05;3.40;;;19.60;99.90;;;;;;5074751;28;20136;-81
2022/08/03 02:08:03;;;;;;;5.40;3.67;;;19.50;99.90;;;;;;5074399;28;20058;-82
2022/08/03 02:10:31;;;;;;;4.25;3.10;;;19.50;99.90;;;;;;5073669;28;20139;-80
2022/08/03 02:13:00;;;;;;;8.65;3.45;;;19.50;99.90;;;;;;5073591;28;20484;-81
2022/08/03 02:15:27;;;;;;;6.15;3.20;;;19.50;99.90;;;;;;5073359;28;20480;-81
2022/08/03 02:17:55;;;;;;;6.00;3.13;;;19.40;99.90;;;;;;5074523;28;20048;-82
2022/08/03 02:20:20;;;;;;;6.30;3.47;;;19.40;99.90;;;;;;5074490;28;20091;-80
2022/08/03 02:22:46;;;;;;;7.83;3.40;;;19.50;99.90;;;;;;5074445;28;20090;-80
2022/08/03 02:25:14;;;;;;;6.32;3.60;;;19.40;99.90;;;;;;5074448;28;20097;-81
2022/08/03 02:27:51;;;;;;;6.03;3.38;;;19.40;99.90;;;;;;5073683;28;20102;-81
2022/08/03 02:30:18;;;;;;;7.80;3.30;;;19.30;99.90;;;;;;5073512;28;20052;-80
2022/08/03 02:32:53;;;;;;;7.78;3.58;;;19.30;99.90;;;;;;5073262;28;20423;-81
2022/08/03 02:35:21;;;;;;;6.43;3.40;;;19.30;99.90;;;;;;5074478;28;20485;-80
2022/08/03 02:37:51;;;;;;;6.25;3.17;;;19.20;99.90;;;;;;5072865;28;20539;-82
2022/08/03 02:40:19;;;;;;;9.63;3.80;;;19.20;99.90;;;;;;5074186;28;20043;-80
2022/08/03 02:42:48;;;;;;;5.13;3.03;;;19.20;99.90;;;;;;5072884;28;20048;-81
2022/08/03 02:45:15;;;;;;;5.38;3.00;;;19.20;99.90;;;;;;5074030;28;20090;-81
2022/08/03 02:47:42;;;;;;;6.78;3.47;;;19.10;99.90;;;;;;5072812;28;20053;-81
2022/08/03 02:50:11;;;;;;;8.85;3.53;;;19.10;99.90;;;;;;5073085;28;20522;-79
2022/08/03 02:52:38;;;;;;;8.25;3.45;;;19.00;99.90;;;;;;5073882;28;20132;-81
2022/08/03 02:55:06;;;;;;;5.40;3.38;;;18.90;99.90;;;;;;5072657;28;20045;-81
2022/08/03 02:57:35;;;;;;;6.55;3.50;;;18.90;99.90;;;;;;5073931;28;20412;-79
2022/08/03 03:00:01;;;;;;;6.43;3.33;;;18.90;99.90;;;;;;5072884;28;20095;-82
2022/08/03 03:02:28;;;;;;;7.28;3.28;;;18.90;99.90;;;;;;5073851;28;20082;-80
2022/08/03 03:04:54;;;;;;;;;;;18.80;99.90;;;;;;5074300;28;20463;-81
2022/08/03 03:07:20;;;;;;;5.95;3.30;;;18.80;99.90;;;;;;5073611;28;19973;-82
2022/08/03 03:09:46;;;;;;;7.10;3.15;;;18.80;99.90;;;;;;5072923;28;20452;-81
2022/08/03 03:12:14;;;;;;;5.97;3.43;;;18.70;99.90;;;;;;5056077;28;20087;-82
2022/08/03 03:14:40;;;;;;;10.48;3.63;;;18.70;99.90;;;;;;5072428;28;20102;-80
2022/08/03 03:17:10;;;;;;;8.17;3.90;;;18.70;99.90;;;;;;5072771;28;20076;-82
2022/08/03 03:19:39;;;;;;;5.38;2.95;;;18.70;99.90;;;;;;5073642;28;20044;-81
2022/08/03 03:22:07;;;;;;;7.38;3.33;;;18.60;99.90;;;;;;5072644;28;20044;-80
2022/08/03 03:24:35;;;;;;;7.63;3.20;;;18.60;99.90;;;;;;5072686;28;20054;-81
2022/08/03 03:27:01;;;;;;;6.03;3.00;;;18.70;99.90;;;;;;5073180;28;20048;-80
2022/08/03 03:29:27;;;;;;;7.60;3.10;;;18.70;99.90;;;;;;5074131;28;20044;-82
2022/08/03 03:31:53;;;;;;;6.25;3.03;;;18.60;99.90;;;;;;5073564;28;20079;-81
2022/08/03 03:34:19;;;;;;;9.43;3.17;;;18.60;99.90;;;;;;5073477;28;20452;-80
2022/08/03 03:36:45;;;;;;;6.22;2.70;;;18.50;99.90;;;;;;5073421;28;20101;-81
2022/08/03 03:39:11;;;;;;;6.37;2.90;;;18.60;99.90;;;;;;5074072;28;20124;-80
2022/08/03 03:41:38;;;;;;;7.68;3.00;;;18.50;99.90;;;;;;5072265;28;20040;-83
2022/08/03 03:44:03;;;;;;;;;;;18.60;99.90;;;;;;5073825;28;20045;-80
2022/08/03 03:46:30;;;;;;;6.65;2.80;;;18.50;99.90;;;;;;5073378;28;19920;-81
2022/08/03 03:48:55;;;;;;;7.55;2.60;;;18.50;99.90;;;;;;5073713;28;20048;-82
2022/08/03 03:51:21;;;;;;;7.40;2.80;;;18.50;99.90;;;;;;5073355;28;20110;-80
2022/08/03 03:54:00;;;;;;;6.83;2.80;;;18.50;99.90;;;;;;5073217;28;20091;-81
2022/08/03 03:56:26;;;;;;;5.93;2.45;;;18.50;99.90;;;;;;5073228;28;20044;-83
2022/08/03 03:58:52;;;;;;;5.00;2.53;;;18.50;99.90;;;;;;5073218;28;20442;-82
2022/08/03 04:01:18;;;;;;;8.20;2.95;;;18.50;99.90;;;;;;5072496;28;20044;-82
2022/08/03 04:03:44;;;;;;;7.13;2.80;;;18.40;99.90;;;;;;5073258;28;20041;-82
2022/08/03 04:12:00;;;;;;;5.93;2.50;;;18.40;99.90;;;;;;5073602;28;20056;-82
2022/08/03 04:14:28;;;;;;;5.72;2.38;;;18.50;99.90;;;;;;5073330;28;20128;-81
2022/08/03 04:17:00;;;;;;;6.25;2.75;;;18.50;99.90;;;;;;5073140;28;20416;-82
2022/08/03 04:19:33;;;;;;;8.00;3.25;;;18.50;99.90;;;;;;5073144;28;20083;-82
2022/08/03 04:22:03;;;;;;;7.45;3.22;;;18.60;99.90;;;;;;5073525;28;20396;-81
2022/08/03 04:24:42;;;;;;;4.90;3.08;;;18.40;99.90;;;;;;5089434;28;20044;-82
2022/08/03 04:27:10;;;;;;;4.57;2.72;;;18.50;99.90;;;;;;5072421;28;20088;-82
2022/08/03 04:29:40;;;;;;;8.45;3.15;;;18.50;99.90;;;;;;5072995;28;20041;-82
2022/08/03 04:32:06;;;;;;;6.60;3.00;;;18.80;99.90;;;;;;5072919;28;20098;-82
2022/08/03 04:34:32;;;;;;;5.80;3.03;;;18.50;99.90;;;;;;5072937;28;20044;-80
2022/08/03 04:37:02;;;;;;;7.23;3.30;;;18.50;99.90;;;;;;5072936;28;20055;-80
2022/08/03 04:39:31;;;;;;;8.88;3.10;;;18.50;99.90;;;;;;5074513;28;20040;-82
2022/08/03 04:42:05;;;;;;;7.93;3.20;;;18.50;99.90;;;;;;5076570;28;20045;-82
2022/08/03 04:44:36;;;;;;;6.82;2.92;;;18.50;99.90;;;;;;5076407;28;20049;-83
2022/08/03 04:47:02;;;;;;;7.25;3.40;;;18.60;99.90;;;;;;5075412;28;20043;-82
2022/08/03 04:49:29;;;;;;;8.68;3.45;;;18.60;99.90;;;;;;5075096;28;20049;-81
2022/08/03 04:51:55;;;;;;;9.90;3.67;;;18.60;99.90;;;;;;5074975;28;20045;-82
2022/08/03 04:54:21;;;;;;;10.53;3.67;;;18.80;99.90;;;;;;5075053;28;20041;-80
2022/08/03 04:56:46;;;;;;;9.47;3.60;;;18.80;99.90;;;;;;5075141;28;20396;-81
2022/08/03 04:59:12;;;;;;;8.10;3.90;;;18.60;99.90;;;;;;5075090;28;20369;-80
2022/08/03 05:01:40;;;;;;;8.25;3.20;;;18.70;99.90;;;;;;5091671;28;20045;-82
2022/08/03 05:04:06;;;;;;;7.20;3.35;;;18.80;99.90;;;;;;5075302;28;20049;-82
2022/08/03 05:06:32;;;;;;;9.43;3.40;;;18.70;99.90;;;;;;5074634;28;20155;-82
2022/08/03 05:08:57;;;;;;;7.17;3.37;;;18.80;99.90;;;;;;5075868;28;20425;-82
2022/08/03 05:11:23;;;;;;;11.40;3.53;;;18.80;99.90;;;;;;5074819;28;20131;-81
2022/08/03 05:13:48;;;;;;;8.70;4.03;;;19.00;99.90;;;;;;5075756;28;20473;-81
2022/08/03 05:16:14;;;;;;;6.57;3.67;;;18.90;99.90;;;;;;5074889;28;20123;-82
2022/08/03 05:18:41;;;;;;;9.27;3.70;;;18.80;99.90;;;;;;5075843;28;20070;-82
2022/08/03 05:21:08;;;;;;;;;;;19.00;99.90;;;;;;5076372;28;20048;-81
2022/08/03 05:23:34;;;;;;;9.85;4.10;;;19.00;99.90;;;;;;5074522;28;19920;-87
2022/08/03 05:25:59;;;;;;;8.32;4.03;;;19.10;99.90;;;;;;5075679;28;20048;-80
2022/08/03 05:28:25;;;;;;;6.80;4.00;;;19.10;99.90;;;;;;5075577;28;20041;-80
2022/08/03 05:30:51;;;;;;;6.43;3.53;;;19.20;99.90;;;;;;5075572;28;20141;-79
2022/08/03 05:33:16;;;;;;;11.47;3.97;;;19.30;99.90;;;;;;5075454;28;20040;-82
2022/08/03 05:35:42;;;;;;;12.93;5.40;;;19.40;99.90;;;;;;5091422;28;20045;-80
2022/08/03 05:38:07;;;;;;;11.07;3.70;;;19.40;99.90;;;;;;5075450;28;20048;-81
2022/08/03 05:40:33;;;;;;;9.63;3.70;;;19.50;99.90;;;;;;5074295;28;20036;-79
2022/08/03 05:42:59;;;;;;;8.57;3.60;;;19.60;99.90;;;;;;5075225;28;20047;-80
2022/08/03 05:45:25;;;;;;;10.27;3.80;;;19.60;99.90;;;;;;5075242;28;20048;-85
2022/08/03 05:47:50;;;;;;;9.07;3.40;;;19.50;99.90;;;;;;5074897;28;20050;-79
2022/08/03 05:50:20;;;;;;;10.00;4.07;;;19.70;99.90;;;;;;5074732;28;20431;-79
2022/08/03 05:52:45;;;;;;;11.82;3.70;;;19.70;99.90;;;;;;5074974;28;20135;-80
2022/08/03 05:55:12;;;;;;;11.00;3.53;;;19.80;99.90;;;;;;5073820;28;20136;-80
2022/08/03 05:57:38;;;;;;;8.20;3.25;;;19.80;99.90;;;;;;5074969;28;20040;-80
2022/08/03 06:00:09;;;;;;;8.27;3.58;;;19.90;99.90;;;;;;5074915;28;20084;-80
2022/08/03 06:02:35;;;;;;;10.60;4.05;;;20.00;99.90;;;;;;5074392;28;20059;-80
2022/08/03 06:05:00;;;;;;;9.23;3.80;;;20.10;99.90;;;;;;5074543;28;20041;-79
2022/08/03 06:07:26;;;;;;;11.13;3.77;;;20.30;99.90;;;;;;5057304;28;20131;-80
2022/08/03 06:09:52;;;;;;;8.17;3.80;;;20.40;99.90;;;;;;5075250;28;20041;-85
2022/08/03 06:12:18;;;;;;;9.10;4.30;;;20.50;99.90;;;;;;5057683;28;20144;-86
2022/08/03 06:14:43;;;;;;;10.00;4.30;;;20.70;99.90;;;;;;5057263;28;20051;-89
2022/08/03 06:17:09;;;;;;;8.83;4.10;;;20.80;99.90;;;;;;5073779;28;20393;-90
2022/08/03 06:19:35;;;;;;;8.90;4.30;;;21.30;99.90;;;;;;5057405;28;20127;-85
2022/08/03 06:22:00;;;;;;;8.87;4.03;;;21.00;99.90;;;;;;5073829;28;20083;-89
2022/08/03 06:24:26;;;;;;;9.33;3.80;;;21.20;99.90;;;;;;5057173;28;20483;-85
2022/08/03 06:26:51;;;;;;;10.13;4.23;;;21.30;99.90;;;;;;5073577;28;20044;-87
2022/08/03 06:29:17;;;;;;;8.63;3.07;;;21.40;99.90;;;;;;5073487;28;20040;-87
2022/08/03 06:31:43;;;;;;;6.57;3.43;;;21.60;99.90;;;;;;5057984;28;20105;-89
2022/08/03 06:34:08;;;;;;;11.13;3.60;;;21.60;99.90;;;;;;5073582;28;20555;-89
2022/08/03 06:36:34;;;;;;;10.90;3.67;;;21.70;99.90;;;;;;5073847;28;20044;-86
2022/08/03 06:39:00;;;;;;;9.80;3.20;;;21.80;99.90;;;;;;5057741;28;20146;-85
2022/08/03 06:41:27;;;;;;;7.90;2.90;;;21.90;99.90;;;;;;5074234;28;20358;-86
2022/08/03 06:43:53;;;;;;;10.45;3.33;;;21.90;99.90;;;;;;5073441;28;20048;-82
2022/08/03 06:46:19;;;;;;;11.55;3.42;;;21.90;99.90;;;;;;5073843;28;20489;-85
2022/08/03 06:48:45;;;;;;;9.82;3.55;;;22.20;99.90;;;;;;5072824;28;20161;-84
2022/08/03 06:51:11;;;;;;;8.87;3.10;;;22.30;99.90;;;;;;5074064;28;20067;-84
2022/08/03 06:53:36;;;;;;;9.03;3.57;;;22.40;99.90;;;;;;5073011;28;20036;-82
2022/08/03 06:56:04;;;;;;;13.10;3.60;;;22.50;99.90;;;;;;5073919;28;20472;-81
2022/08/03 06:58:30;;;;;;;9.50;3.40;;;22.50;99.90;;;;;;5074192;28;20090;-81
2022/08/03 07:00:56;;;;;;;14.07;3.20;;;22.60;99.90;;;;;;5073858;28;20048;-82
2022/08/03 07:03:21;;;;;;;9.20;3.10;;;22.70;99.90;;;;;;5073124;28;20044;-84
2022/08/03 07:05:47;;;;;;;12.00;3.53;;;22.80;99.90;;;;;;5056441;28;20133;-83
2022/08/03 07:08:14;;;;;;;9.40;3.20;;;22.80;99.90;;;;;;5072587;28;20130;-80
2022/08/03 07:10:39;;;;;;;8.98;3.03;;;22.70;99.90;;;;;;5072812;28;20094;-81
2022/08/03 07:13:05;;;;;;;11.17;3.57;;;22.90;99.90;;;;;;5072508;28;20522;-84
2022/08/03 07:15:31;;;;;;;11.77;3.33;;;22.90;99.90;;;;;;5073405;28;20048;-85
2022/08/03 07:17:56;;;;;;;8.83;3.17;;;23.00;99.90;;;;;;5089621;28;20365;-84
2022/08/03 07:20:22;;;;;;;10.87;3.03;;;23.00;99.90;;;;;;5072859;28;20049;-81
2022/08/03 07:22:48;;;;;;;8.47;3.30;;;23.10;99.90;;;;;;5072612;28;20062;-80
2022/08/03 07:25:14;;;;;;;12.97;3.30;;;23.10;99.90;;;;;;5073611;28;20443;-79
2022/08/03 07:27:43;;;;;;;9.20;3.30;;;23.20;99.90;;;;;;5073453;28;20045;-83
2022/08/03 07:30:09;;;;;;;10.02;3.13;;;23.20;99.90;;;;;;5073571;28;20084;-84
2022/08/03 07:32:35;;;;;;;8.03;3.03;;;23.30;99.90;;;;;;5073803;28;20080;-82
2022/08/03 07:35:01;;;;;;;10.90;3.00;;;23.30;99.90;;;;;;5073468;28;20493;-82
2022/08/03 07:37:27;;;;;;;6.90;2.60;;;23.40;99.90;;;;;;5073506;28;20123;-84
2022/08/03 07:39:52;;;;;;;8.35;2.75;;;23.30;99.90;;;;;;5073514;28;20045;-82
2022/08/03 07:42:18;;;;;;;10.97;2.77;;;23.20;99.90;;;;;;5073710;28;20048;-83
2022/08/03 07:44:44;;;;;;;13.37;3.10;;;23.30;99.90;;;;;;5056263;28;20052;-84
2022/08/03 07:47:09;;;;;;;9.70;3.13;;;23.30;99.90;;;;;;5073137;28;20040;-83
2022/08/03 07:49:39;;;;;;;7.73;2.53;;;23.50;99.90;;;;;;5072915;28;20060;-84
2022/08/03 07:54:48;;;;;;;11.88;3.05;;;23.60;99.90;;;;;;5073113;28;20044;-81
2022/08/03 07:57:14;;;;;;;11.23;2.80;;;23.70;99.90;;;;;;5073475;28;20401;-83
2022/08/03 07:59:39;;;;;;;12.43;2.93;;;23.90;99.90;;;;;;5072242;28;20044;-86
2022/08/03 08:02:06;;;;;;;11.30;3.03;;;24.00;99.90;;;;;;5055876;28;20056;-83
2022/08/03 08:04:31;;;;;;;15.18;2.65;;;24.00;99.90;;;;;;5073426;28;20064;-88
2022/08/03 08:06:57;;;;;;;9.10;2.77;;;24.10;99.90;;;;;;5072189;28;20477;-84
2022/08/03 08:09:22;;;;;;;11.53;3.03;;;24.20;99.90;;;;;;5055566;28;20056;-86
2022/08/03 08:11:48;;;;;;;9.17;3.13;;;24.40;99.90;;;;;;5054661;28;20066;-82
2022/08/03 08:14:14;;;;;;;10.88;3.15;;;24.50;99.90;;;;;;5074416;28;20048;-84
2022/08/03 08:16:39;;;;;;;17.07;3.63;;;24.70;99.90;;;;;;5076522;28;20135;-80
2022/08/03 08:19:05;;;;;;;14.97;3.20;;;24.70;99.90;;;;;;5059334;28;20044;-79
2022/08/03 08:21:31;;;;;;;10.80;3.20;;;24.80;99.90;;;;;;5092360;28;20072;-86
2022/08/03 08:23:56;;;;;;;8.73;3.10;;;24.80;99.90;;;;;;5074748;28;20048;-86
2022/08/03 08:26:22;;;;;;;10.30;3.53;;;24.90;99.90;;;;;;5076383;28;20515;-82
2022/08/03 08:28:47;;;;;;;10.90;3.20;;;24.90;99.90;;;;;;5058143;28;20182;-83
2022/08/03 08:31:13;;;;;;;18.00;3.27;;;25.00;99.90;;;;;;5076807;28;20083;-82
2022/08/03 08:33:39;;;;;;;10.03;3.20;;;25.10;99.90;;;;;;5076253;28;20378;-83
2022/08/03 08:36:04;;;;;;;11.27;2.93;;;25.20;99.90;;;;;;5074801;28;20083;-80
2022/08/03 08:38:30;;;;;;;11.07;2.87;;;25.30;99.90;;;;;;5073733;28;20384;-81
2022/08/03 08:40:56;;;;;;;18.13;3.47;;;25.40;99.90;;;;;;5074814;28;20093;-81
2022/08/03 08:43:21;;;;;;;10.50;2.63;;;25.50;99.90;;;;;;5075740;28;20102;-81
2022/08/03 08:45:52;;;;;;;17.30;3.27;;;25.60;99.90;;;;;;5075656;28;20194;-81
2022/08/03 08:48:26;;;;;;;12.73;3.13;;;25.80;99.90;;;;;;5057889;28;20101;-82
2022/08/03 08:50:54;;;;;;;16.88;3.50;;;25.80;99.90;;;;;;5074716;28;20101;-79
2022/08/03 08:53:20;;;;;;;10.65;3.30;;;25.80;99.90;;;;;;5075132;28;20039;-81
2022/08/03 08:55:47;;;;;;;11.48;2.90;;;25.90;99.90;;;;;;5076193;28;20044;-80
2022/08/03 08:58:15;;;;;;;12.23;3.13;;;25.90;99.90;;;;;;5076007;28;20048;-81
2022/08/03 09:00:44;;;;;;;14.18;3.42;;;26.00;99.90;;;;;;5076133;28;20194;-79
2022/08/03 09:03:11;;;;;;;10.88;3.15;;;26.00;99.90;;;;;;5076077;28;20094;-80
2022/08/03 09:05:37;;;;;;;14.05;3.33;;;26.00;99.90;;;;;;5075968;28;20049;-81
2022/08/03 09:08:05;;;;;;;13.45;3.00;;;26.10;99.90;;;;;;5075700;28;20051;-80
2022/08/03 09:10:30;;;;;;;14.30;3.40;;;26.10;99.90;;;;;;5075891;28;20055;-80
2022/08/03 09:12:56;;;;;;;10.90;3.17;;;26.10;99.90;;;;;;5075837;28;20131;-80
2022/08/03 09:15:27;;;;;;;11.07;3.03;;;26.20;99.90;;;;;;5074941;28;20037;-79
2022/08/03 09:17:56;;;;;;;13.77;3.10;;;26.20;99.90;;;;;;5076019;28;20047;-81
2022/08/03 09:20:24;;;;;;;14.98;2.90;;;26.30;99.90;;;;;;5075414;28;20115;-80
2022/08/03 09:22:53;;;;;;;11.52;2.80;;;26.40;99.90;;;;;;5075679;28;20048;-80
2022/08/03 09:25:28;;;;;;;11.48;2.55;;;26.50;99.90;;;;;;5074276;28;20045;-81
2022/08/03 09:27:54;;;;;;;8.82;2.78;;;26.60;99.90;;;;;;5075724;28;20489;-82
2022/08/03 09:30:20;;;;;;;13.75;3.05;;;26.70;99.90;;;;;;5074758;28;20041;-85
2022/08/03 09:32:46;;;;;;;12.02;3.00;;;26.80;99.90;;;;;;5057937;28;20044;-82
2022/08/03 09:35:13;;;;;;;14.15;2.85;;;26.80;99.90;;;;;;5075196;28;20480;-85
2022/08/03 09:37:39;;;;;;;13.90;2.60;;;26.90;99.90;;;;;;5075376;28;20051;-81
2022/08/03 09:40:05;;;;;;;;;;;27.00;99.90;;;;;;5074343;28;20083;-84
2022/08/03 09:42:34;;;;;;;12.35;2.97;;;27.10;99.90;;;;;;5074392;28;19920;-83
2022/08/03 09:44:59;;;;;;;12.35;3.03;;;27.20;99.90;;;;;;5074153;28;20048;-84
2022/08/03 09:47:30;;;;;;;12.10;3.10;;;27.20;99.90;;;;;;5073758;28;20041;-84
2022/08/03 09:50:07;;;;;;;11.32;2.97;;;27.20;99.90;;;;;;5074152;28;20045;-84
2022/08/03 09:52:38;;;;;;;15.77;2.70;;;27.30;99.90;;;;;;5073915;28;20055;-82
2022/08/03 09:55:12;;;;;;;12.80;2.90;;;27.40;99.90;;;;;;5074881;28;20054;-85
2022/08/03 09:57:39;;;;;;;13.95;3.13;;;27.50;99.90;;;;;;5074025;28;20602;-82
2022/08/03 10:00:13;;;;;;;12.15;2.85;;;27.60;99.90;;;;;;5074866;28;20048;-84
2022/08/03 10:02:40;;;;;;;10.07;2.47;;;27.70;99.90;;;;;;5074964;28;20048;-83
2022/08/03 10:05:08;;;;;;;11.45;2.60;;;27.80;99.90;;;;;;5073666;28;20045;-82
2022/08/03 10:07:48;;;;;;;13.70;2.95;;;27.90;99.90;;;;;;5090817;28;20435;-83
2022/08/03 10:10:15;;;;;;;8.90;2.28;;;28.00;99.90;;;;;;5074726;28;20055;-84
2022/08/03 10:12:42;;;;;;;9.82;2.65;;;27.90;99.90;;;;;;5074658;28;20044;-84
2022/08/03 10:15:09;;;;;;;10.35;2.65;;;27.90;99.90;;;;;;5074525;28;20052;-83
2022/08/03 10:17:36;;;;;;;9.95;2.78;;;28.10;99.90;;;;;;5073879;28;20056;-82
2022/08/03 10:20:03;;;;;;;12.00;2.60;;;28.20;99.90;;;;;;5074563;28;20102;-84
2022/08/03 10:22:33;;;;;;;10.85;2.80;;;28.20;99.90;;;;;;5073484;28;20048;-84
2022/08/03 10:25:07;;;;;;;8.40;2.30;;;28.30;99.90;;;;;;5074726;28;20045;-81
2022/08/03 10:27:38;;;;;;;13.48;2.30;;;28.40;99.90;;;;;;5090337;28;20052;-80
2022/08/03 10:30:07;;;;;;;11.98;2.60;;;28.50;99.90;;;;;;5090921;28;20056;-82
2022/08/03 10:32:44;;;;;;;14.73;3.10;;;28.60;99.90;;;;;;5072939;28;20134;-80
2022/08/03 10:35:13;;;;;;;15.68;2.95;;;28.70;99.90;;;;;;5073252;28;20051;-81
2022/08/03 10:37:44;;;;;;;16.95;3.05;;;28.90;99.90;;;;;;5072090;28;20036;-81
2022/08/03 10:40:14;;;;;;;11.65;2.67;;;28.90;99.90;;;;;;5074157;28;20369;-81
2022/08/03 10:42:43;;;;;;;13.93;2.58;;;28.80;99.90;;;;;;5074245;28;20068;-82
2022/08/03 10:45:16;;;;;;;9.43;2.42;;;29.00;99.90;;;;;;5073083;28;20048;-81
2022/08/03 10:47:43;;;;;;;11.77;2.75;;;29.10;99.90;;;;;;5073948;28;20548;-81
2022/08/03 10:50:10;;;;;;;9.90;2.40;;;29.10;99.90;;;;;;5074032;28;20079;-81
2022/08/03 10:52:52;;;;;;;10.75;2.70;;;29.20;99.90;;;;;;5056271;28;20149;-82
2022/08/03 10:58:36;;;;;;;12.55;2.28;;;29.50;99.90;;;;;;5074012;28;20052;-82
2022/08/03 11:01:09;;;;;;;12.05;2.92;;;29.50;97.80;;;;;;5073641;28;20048;-82
2022/08/03 11:03:53;;;;;;;9.35;2.40;;;29.50;99.10;;;;;;5074183;28;20048;-81
2022/08/03 11:06:21;;;;;;;15.45;2.83;;;29.50;98.90;;;;;;5073748;28;20084;-82
2022/08/03 11:08:48;;;;;;;10.32;2.00;;;29.50;98.50;;;;;;5073764;28;20408;-81
2022/08/03 11:11:16;;;;;;;10.88;2.50;;;29.60;97.60;;;;;;5073541;28;20044;-82
2022/08/03 11:14:07;;;;;;;12.55;2.78;;;29.60;97.80;;;;;;5072572;28;20040;-81
2022/08/03 11:16:45;;;;;;;12.20;2.83;;;29.70;97.90;;;;;;5072223;28;20048;-83
2022/08/03 11:19:16;;;;;;;13.57;2.80;;;29.80;97.90;;;;;;5072601;28;20127;-82
2022/08/03 11:21:51;;;;;;;11.50;2.67;;;29.90;97.10;;;;;;5073575;28;20159;-81
2022/08/03 11:24:35;;;;;;;10.20;2.53;;;30.00;97.20;;;;;;5073568;28;20041;-82
2022/08/03 11:27:20;;;;;;;15.82;2.40;;;30.10;97.30;;;;;;5072948;28;20080;-85
2022/08/03 11:30:09;;;;;;;11.25;2.58;;;30.20;96.70;;;;;;5072671;28;20059;-81
2022/08/03 11:32:40;;;;;;;10.18;2.65;;;30.30;96.60;;;;;;5072864;28;20041;-82
2022/08/03 11:35:18;;;;;;;10.38;2.70;;;30.30;97.00;;;;;;5073466;28;20048;-83
2022/08/03 11:37:53;;;;;;;12.75;2.67;;;30.40;96.60;;;;;;5072269;28;20049;-84
2022/08/03 11:40:37;;;;;;;15.77;2.45;;;30.40;96.00;;;;;;5072451;28;20048;-82
2022/08/03 11:43:05;;;;;;;12.63;2.97;;;30.50;95.90;;;;;;5072498;28;20544;-86
2022/08/03 11:45:31;;;;;;;12.50;2.70;;;30.60;96.40;;;;;;5073731;28;20131;-83
2022/08/03 11:47:58;;;;;;;12.80;2.83;;;30.70;96.20;;;;;;5072914;28;20561;-86
2022/08/03 11:50:24;;;;;;;10.93;2.65;;;30.70;96.40;;;;;;5093305;28;20059;-83
2022/08/03 11:52:50;;;;;;;9.38;2.17;;;30.70;96.40;;;;;;5093502;28;20041;-85
2022/08/03 11:55:20;;;;;;;8.30;2.00;;;30.70;96.40;;;;;;5092783;28;20116;-84
2022/08/03 11:57:46;;;;;;;11.65;2.38;;;30.80;96.20;;;;;;5076318;28;20052;-83
2022/08/03 12:00:20;;;;;;;11.27;2.30;;;30.90;96.30;;;;;;5093137;28;20133;-83
2022/08/03 12:03:16;;;;;;;8.55;2.35;;;31.00;96.30;;;;;;5093414;28;20165;-83
2022/08/03 12:05:56;;;;;;;9.27;2.33;;;31.10;94.00;;;;;;5072166;28;20108;-83
2022/08/03 12:08:33;;;;;;;10.57;2.17;;;31.10;94.90;;;;;;5093710;28;20044;-83
2022/08/03 12:11:00;;;;;;;10.35;2.20;;;31.00;94.40;;;;;;5076096;28;20037;-83
2022/08/03 12:13:34;;;;;;;10.93;2.70;;;31.10;94.80;;;;;;5075891;28;20044;-83
2022/08/03 12:16:01;;;;;;;13.07;2.50;;;31.10;94.90;;;;;;5076981;28;20087;-83
2022/08/03 12:18:26;;;;;;;15.85;2.88;;;31.10;95.40;;;;;;5075931;28;20052;-84
2022/08/03 12:21:03;;;;;;;7.63;2.10;;;31.20;94.30;;;;;;5092814;28;20492;-84
2022/08/03 12:23:29;;;;;;;13.15;2.35;;;31.20;95.00;;;;;;5075727;28;20076;-85
2022/08/03 12:26:01;;;;;;;12.35;2.45;;;31.20;94.50;;;;;;5076805;28;20129;-83
2022/08/03 12:28:27;;;;;;;11.32;2.58;;;31.20;94.60;;;;;;5092814;28;20049;-83
2022/08/03 12:30:52;;;;;;;12.45;2.90;;;31.10;94.40;;;;;;5075782;28;20492;-83
2022/08/03 12:33:24;;;;;;;8.60;2.10;;;31.10;94.30;;;;;;5075724;28;20041;-83
2022/08/03 12:36:09;;;;;;;13.90;2.58;;;30.90;93.80;;;;;;5076706;28;20096;-84
2022/08/03 12:38:37;;;;;;;12.70;2.33;;;30.80;94.00;;;;;;5075700;28;20049;-83
2022/08/03 12:41:12;;;;;;;10.80;2.35;;;30.80;94.10;;;;;;5075638;28;20044;-83
2022/08/03 12:43:49;;;;;;;12.27;2.72;;;30.90;94.00;;;;;;5076009;28;20049;-83
2022/08/03 12:46:17;;;;;;;10.93;2.47;;;31.00;93.50;;;;;;5092452;28;20115;-86
2022/08/03 12:49:06;;;;;;;13.52;2.63;;;31.10;93.30;;;;;;5076386;28;20118;-83
2022/08/03 12:51:34;;;;;;;10.30;2.42;;;31.20;93.60;;;;;;5076200;28;20131;-82
2022/08/03 12:54:00;;;;;;;10.98;2.75;;;31.30;93.80;;;;;;5076294;28;20032;-82
2022/08/03 12:56:26;;;;;;;11.38;2.40;;;31.40;92.70;;;;;;5076226;28;20123;-83
2022/08/03 12:58:52;;;;;;;11.38;2.45;;;31.60;92.10;;;;;;5092084;28;20083;-82
2022/08/03 13:01:21;;;;;;;8.75;2.25;;;31.50;91.60;;;;;;5075254;28;20041;-82
2022/08/03 13:03:47;;;;;;;10.05;2.20;;;31.60;92.20;;;;;;5076218;28;20056;-84